createdAt,value
2023-06-07T00:00:20.698Z,2.20
2023-06-07T00:01:20.661Z,2.00
2023-06-07T00:02:33.071Z,1.80
2023-06-07T00:03:20.839Z,1.70
2023-06-07T00:04:20.718Z,2.40
2023-06-07T00:05:20.617Z,1.50
2023-06-07T00:06:20.632Z,1.80
2023-06-07T00:07:20.583Z,2.40
2023-06-07T00:08:20.575Z,2.10
2023-06-07T00:09:20.554Z,1.70
2023-06-07T00:10:20.594Z,2.10
2023-06-07T00:11:20.541Z,1.80
2023-06-07T00:12:20.533Z,1.70
2023-06-07T00:13:20.523Z,1.70
2023-06-07T00:14:20.520Z,2.10
2023-06-07T00:15:20.524Z,2.00
2023-06-07T00:16:20.491Z,1.90
2023-06-07T00:17:20.512Z,1.90
2023-06-07T00:18:20.599Z,2.40
2023-06-07T00:19:20.489Z,2.10
2023-06-07T00:20:20.484Z,1.80
2023-06-07T00:21:20.429Z,1.70
2023-06-07T00:22:20.427Z,2.20
2023-06-07T00:23:20.423Z,1.60
2023-06-07T00:24:20.509Z,1.90
2023-06-07T00:25:20.396Z,2.00
2023-06-07T00:26:20.387Z,1.90
2023-06-07T00:27:20.376Z,2.00
2023-06-07T00:28:20.369Z,2.10
2023-06-07T00:29:20.367Z,2.20
2023-06-07T00:30:20.399Z,2.20
2023-06-07T00:31:20.342Z,2.20
2023-06-07T00:32:20.352Z,2.30
2023-06-07T00:33:20.375Z,1.90
2023-06-07T00:34:20.331Z,1.60
2023-06-07T00:35:20.286Z,1.50
2023-06-07T00:36:20.284Z,2.30
2023-06-07T00:37:20.272Z,1.70
2023-06-07T00:38:20.289Z,1.50
2023-06-07T00:39:20.268Z,1.40
2023-06-07T00:40:20.245Z,2.00
2023-06-07T00:41:20.296Z,1.70
2023-06-07T00:42:20.212Z,1.90
2023-06-07T00:43:20.223Z,1.70
2023-06-07T00:44:20.205Z,1.90
2023-06-07T00:45:20.233Z,1.70
2023-06-07T00:46:20.193Z,2.10
2023-06-07T00:47:20.201Z,1.80
2023-06-07T00:48:20.318Z,2.00
2023-06-07T00:49:20.180Z,1.90
2023-06-07T00:50:20.137Z,1.70
2023-06-07T00:51:20.119Z,2.20
2023-06-07T00:52:20.133Z,1.70
2023-06-07T00:53:20.113Z,1.40
2023-06-07T00:54:20.138Z,2.10
2023-06-07T00:55:20.094Z,2.20
2023-06-07T00:56:20.098Z,2.20
2023-06-07T00:57:20.077Z,2.10
2023-06-07T00:58:20.063Z,1.70
2023-06-07T00:59:20.072Z,1.80
2023-06-07T01:00:20.102Z,1.50
2023-06-07T01:01:20.053Z,1.80
2023-06-07T01:02:20.103Z,2.10
2023-06-07T01:03:20.059Z,2.60
2023-06-07T01:04:20.000Z,1.70
2023-06-07T01:05:20.009Z,1.40
2023-06-07T01:06:19.991Z,2.20
2023-06-07T01:07:19.969Z,1.90
2023-06-07T01:08:19.968Z,2.00
2023-06-07T01:09:19.933Z,2.20
2023-06-07T01:10:19.984Z,2.80
2023-06-07T01:11:19.929Z,1.70
2023-06-07T01:12:19.902Z,1.70
2023-06-07T01:13:19.889Z,2.00
2023-06-07T01:14:19.889Z,1.80
2023-06-07T01:15:19.906Z,2.10
2023-06-07T01:16:19.975Z,1.90
2023-06-07T01:17:19.856Z,2.10
2023-06-07T01:18:19.845Z,2.20
2023-06-07T01:19:19.832Z,2.00
2023-06-07T01:20:19.852Z,1.70
2023-06-07T01:21:19.866Z,2.10
2023-06-07T01:22:19.838Z,2.00
2023-06-07T01:23:19.791Z,1.80
2023-06-07T01:24:19.813Z,2.20
2023-06-07T01:25:19.806Z,2.90
2023-06-07T01:26:19.787Z,2.00
2023-06-07T01:27:19.746Z,1.90
2023-06-07T01:28:19.790Z,2.30
2023-06-07T01:29:19.731Z,1.80
2023-06-07T01:30:19.749Z,2.00
2023-06-07T01:31:19.731Z,2.20
2023-06-07T01:32:19.722Z,2.20
2023-06-07T01:33:19.682Z,2.30
2023-06-07T01:34:19.699Z,2.10
2023-06-07T01:35:19.690Z,1.60
2023-06-07T01:36:19.676Z,2.00
2023-06-07T01:37:19.640Z,2.20
2023-06-07T01:38:19.648Z,2.70
2023-06-07T01:39:19.644Z,2.60
2023-06-07T01:40:19.653Z,2.50
2023-06-07T01:41:19.614Z,2.00
2023-06-07T01:42:19.607Z,2.10
2023-06-07T01:43:19.580Z,1.50
2023-06-07T01:44:19.594Z,1.90
2023-06-07T01:45:19.553Z,1.90
2023-06-07T01:46:19.594Z,1.80
2023-06-07T01:47:19.540Z,1.80
2023-06-07T01:48:19.632Z,2.50
2023-06-07T01:49:19.565Z,1.90
2023-06-07T01:50:19.505Z,1.80
2023-06-07T01:51:19.490Z,2.00
2023-06-07T01:52:19.497Z,1.80
2023-06-07T01:53:19.492Z,1.70
2023-06-07T01:54:19.476Z,1.80
2023-06-07T01:55:19.464Z,2.00
2023-06-07T01:56:19.459Z,1.60
2023-06-07T01:57:19.427Z,2.30
2023-06-07T01:58:19.475Z,2.30
2023-06-07T01:59:19.430Z,1.70
2023-06-07T02:00:19.408Z,1.90
2023-06-07T02:01:19.416Z,1.80
2023-06-07T02:02:19.383Z,2.00
2023-06-07T02:03:19.440Z,2.50
2023-06-07T02:04:19.384Z,2.10
2023-06-07T02:05:19.352Z,2.00
2023-06-07T02:06:19.341Z,2.20
2023-06-07T02:07:19.365Z,2.60
2023-06-07T02:08:19.348Z,1.70
2023-06-07T02:09:19.308Z,2.50
2023-06-07T02:10:19.309Z,1.70
2023-06-07T02:11:19.286Z,1.70
2023-06-07T02:12:19.316Z,1.70
2023-06-07T02:13:19.258Z,2.10
2023-06-07T02:14:19.255Z,2.70
2023-06-07T02:15:19.238Z,1.40
2023-06-07T02:16:19.256Z,3.10
2023-06-07T02:17:19.288Z,2.30
2023-06-07T02:18:19.258Z,2.10
2023-06-07T02:19:19.207Z,2.40
2023-06-07T02:20:19.202Z,2.00
2023-06-07T02:21:19.176Z,2.30
2023-06-07T02:22:19.204Z,2.40
2023-06-07T02:23:19.162Z,2.70
2023-06-07T02:24:19.247Z,1.90
2023-06-07T02:25:19.142Z,2.20
2023-06-07T02:26:19.155Z,2.20
2023-06-07T02:27:19.133Z,2.50
2023-06-07T02:28:19.111Z,2.50
2023-06-07T02:29:19.102Z,2.20
2023-06-07T02:30:19.097Z,2.50
2023-06-07T02:31:19.150Z,2.20
2023-06-07T02:32:19.089Z,1.90
2023-06-07T02:33:19.092Z,2.60
2023-06-07T02:34:19.068Z,2.20
2023-06-07T02:35:19.066Z,1.70
2023-06-07T02:36:19.054Z,2.30
2023-06-07T02:37:19.015Z,2.10
2023-06-07T02:38:19.088Z,2.30
2023-06-07T02:39:19.018Z,2.00
2023-06-07T02:40:19.020Z,2.60
2023-06-07T02:41:19.020Z,1.90
2023-06-07T02:42:19.019Z,1.70
2023-06-07T02:43:18.960Z,1.90
2023-06-07T02:44:18.941Z,2.20
2023-06-07T02:45:18.972Z,1.40
2023-06-07T02:46:18.988Z,2.30
2023-06-07T02:47:18.916Z,1.90
2023-06-07T02:48:18.923Z,1.90
2023-06-07T02:49:18.902Z,2.20
2023-06-07T02:50:18.907Z,2.20
2023-06-07T02:51:18.878Z,2.00
2023-06-07T02:52:18.864Z,1.80
2023-06-07T02:53:18.862Z,1.80
2023-06-07T02:54:18.843Z,2.50
2023-06-07T02:55:18.885Z,2.10
2023-06-07T02:56:18.854Z,2.00
2023-06-07T02:57:18.819Z,1.80
2023-06-07T02:58:18.799Z,2.20
2023-06-07T02:59:18.825Z,2.40
2023-06-07T03:00:18.836Z,2.70
2023-06-07T03:01:18.870Z,2.20
2023-06-07T03:02:18.790Z,2.30
2023-06-07T03:03:18.932Z,1.90
2023-06-07T03:04:18.760Z,2.60
2023-06-07T03:05:18.735Z,2.50
2023-06-07T03:06:18.716Z,2.40
2023-06-07T03:07:18.723Z,2.80
2023-06-07T03:08:18.691Z,2.50
2023-06-07T03:09:18.704Z,2.50
2023-06-07T03:10:18.699Z,2.30
2023-06-07T03:11:18.674Z,2.30
2023-06-07T03:12:18.650Z,2.40
2023-06-07T03:13:18.671Z,1.80
2023-06-07T03:14:18.656Z,2.70
2023-06-07T03:15:18.628Z,2.20
2023-06-07T03:16:18.637Z,2.10
2023-06-07T03:17:18.628Z,2.50
2023-06-07T03:18:18.612Z,2.10
2023-06-07T03:19:18.622Z,2.20
2023-06-07T03:20:18.585Z,2.00
2023-06-07T03:21:18.566Z,3.00
2023-06-07T03:22:18.570Z,2.10
2023-06-07T03:23:18.600Z,2.10
2023-06-07T03:24:18.627Z,2.10
2023-06-07T03:25:18.548Z,2.20
2023-06-07T03:26:18.556Z,2.20
2023-06-07T03:27:18.508Z,2.60
2023-06-07T03:28:18.540Z,2.60
2023-06-07T03:29:18.484Z,3.10
2023-06-07T03:30:18.479Z,2.20
2023-06-07T03:31:18.633Z,2.40
2023-06-07T03:32:18.489Z,2.70
2023-06-07T03:33:18.461Z,3.10
2023-06-07T03:34:18.446Z,2.80
2023-06-07T03:35:18.445Z,2.60
2023-06-07T03:36:18.445Z,2.50
2023-06-07T03:37:18.446Z,3.10
2023-06-07T03:38:18.399Z,3.50
2023-06-07T03:39:18.417Z,2.80
2023-06-07T03:40:18.381Z,2.70
2023-06-07T03:41:18.384Z,2.80
2023-06-07T03:42:18.390Z,2.40
2023-06-07T03:43:18.347Z,2.30
2023-06-07T03:44:18.350Z,2.00
2023-06-07T03:45:18.313Z,2.30
2023-06-07T03:46:18.325Z,2.50
2023-06-07T03:47:18.367Z,2.60
2023-06-07T03:48:18.329Z,2.20
2023-06-07T03:49:18.339Z,2.60
2023-06-07T03:50:18.265Z,2.70
2023-06-07T03:51:18.286Z,2.50
2023-06-07T03:52:18.306Z,3.00
2023-06-07T03:53:18.233Z,2.00
2023-06-07T03:54:18.235Z,2.40
2023-06-07T03:55:18.211Z,3.20
2023-06-07T03:56:18.252Z,2.40
2023-06-07T03:57:18.194Z,2.20
2023-06-07T03:58:18.192Z,2.10
2023-06-07T03:59:18.162Z,2.50
2023-06-07T04:00:18.167Z,2.40
2023-06-07T04:01:18.174Z,2.70
2023-06-07T04:02:18.182Z,2.50
2023-06-07T04:03:18.237Z,2.10
2023-06-07T04:04:18.266Z,2.80
2023-06-07T04:05:18.129Z,2.00
2023-06-07T04:06:18.148Z,2.10
2023-06-07T04:07:18.086Z,2.90
2023-06-07T04:08:18.087Z,2.60
2023-06-07T04:09:18.062Z,2.20
2023-06-07T04:10:18.087Z,2.50
2023-06-07T04:11:18.052Z,2.60
2023-06-07T04:12:18.034Z,2.00
2023-06-07T04:13:18.110Z,2.70
2023-06-07T04:14:18.026Z,3.00
2023-06-07T04:15:18.020Z,2.30
2023-06-07T04:16:18.054Z,2.70
2023-06-07T04:17:17.983Z,2.30
2023-06-07T04:18:17.986Z,2.60
2023-06-07T04:19:18.094Z,2.30
2023-06-07T04:20:17.977Z,2.30
2023-06-07T04:21:17.937Z,2.20
2023-06-07T04:22:17.957Z,2.80
2023-06-07T04:23:17.924Z,2.60
2023-06-07T04:24:18.059Z,2.60
2023-06-07T04:25:17.922Z,2.00
2023-06-07T04:26:17.993Z,2.50
2023-06-07T04:27:17.949Z,2.20
2023-06-07T04:28:17.921Z,2.40
2023-06-07T04:29:17.887Z,2.50
2023-06-07T04:30:17.855Z,2.40
2023-06-07T04:31:17.858Z,2.80
2023-06-07T04:32:17.858Z,2.50
2023-06-07T04:33:17.870Z,2.10
2023-06-07T04:34:17.830Z,2.20
2023-06-07T04:35:17.801Z,2.10
2023-06-07T04:36:17.784Z,2.40
2023-06-07T04:37:17.799Z,2.20
2023-06-07T04:38:17.939Z,2.30
2023-06-07T04:39:17.745Z,2.30
2023-06-07T04:40:17.749Z,3.00
2023-06-07T04:41:17.752Z,2.80
2023-06-07T04:42:24.209Z,3.20
2023-06-07T04:43:23.721Z,1.80
2023-06-07T04:44:17.703Z,2.30
2023-06-07T04:45:17.686Z,2.30
2023-06-07T04:46:17.715Z,2.10
2023-06-07T04:47:17.666Z,2.70
2023-06-07T04:48:17.679Z,3.30
2023-06-07T04:49:17.651Z,2.00
2023-06-07T04:50:17.643Z,2.40
2023-06-07T04:51:17.626Z,2.70
2023-06-07T04:52:17.642Z,2.80
2023-06-07T04:53:17.632Z,2.50
2023-06-07T04:54:17.624Z,2.30
2023-06-07T04:55:17.586Z,2.40
2023-06-07T04:56:17.585Z,2.40
2023-06-07T04:57:17.584Z,1.60
2023-06-07T04:58:17.566Z,2.20
2023-06-07T04:59:17.541Z,2.60
2023-06-07T05:00:17.569Z,2.70
2023-06-07T05:01:17.537Z,2.20
2023-06-07T05:02:17.535Z,2.00
2023-06-07T05:03:17.495Z,2.10
2023-06-07T05:04:17.491Z,2.60
2023-06-07T05:05:17.581Z,2.20
2023-06-07T05:06:17.521Z,2.30
2023-06-07T05:07:17.470Z,2.60
2023-06-07T05:08:17.484Z,2.20
2023-06-07T05:09:17.449Z,2.60
2023-06-07T05:10:17.498Z,2.30
2023-06-07T05:11:17.446Z,2.40
2023-06-07T05:12:23.908Z,2.60
2023-06-07T05:13:23.899Z,2.30
2023-06-07T05:14:17.391Z,2.50
2023-06-07T05:15:17.380Z,2.70
2023-06-07T05:16:17.751Z,1.80
2023-06-07T05:17:17.354Z,2.20
2023-06-07T05:18:17.339Z,2.90
2023-06-07T05:19:17.333Z,2.40
2023-06-07T05:20:17.327Z,2.20
2023-06-07T05:21:17.418Z,2.40
2023-06-07T05:22:17.309Z,3.50
2023-06-07T05:23:17.305Z,2.30
2023-06-07T05:24:17.856Z,2.10
2023-06-07T05:25:17.286Z,2.90
2023-06-07T05:26:17.287Z,1.90
2023-06-07T05:27:17.256Z,1.90
2023-06-07T05:28:17.250Z,2.80
2023-06-07T05:29:17.313Z,2.20
2023-06-07T05:30:17.241Z,2.40
2023-06-07T05:31:17.234Z,2.30
2023-06-07T05:32:17.213Z,2.40
2023-06-07T05:33:17.175Z,2.00
2023-06-07T05:34:17.176Z,2.60
2023-06-07T05:35:17.193Z,1.90
2023-06-07T05:36:17.155Z,2.40
2023-06-07T05:37:17.140Z,2.50
2023-06-07T05:38:17.133Z,2.20
2023-06-07T05:39:17.225Z,2.40
2023-06-07T05:40:17.222Z,2.20
2023-06-07T05:41:17.099Z,2.20
2023-06-07T05:42:17.110Z,2.60
2023-06-07T05:43:17.097Z,2.80
2023-06-07T05:44:17.174Z,2.40
2023-06-07T05:45:17.673Z,2.40
2023-06-07T05:46:17.100Z,1.80
2023-06-07T05:47:17.086Z,2.30
2023-06-07T05:48:17.050Z,1.90
2023-06-07T05:49:17.033Z,2.60
2023-06-07T05:50:17.019Z,1.90
2023-06-07T05:51:17.010Z,2.40
2023-06-07T05:52:17.104Z,2.40
2023-06-07T05:53:16.979Z,2.80
2023-06-07T05:54:16.999Z,2.30
2023-06-07T05:55:16.964Z,2.90
2023-06-07T05:56:16.997Z,2.30
2023-06-07T05:57:16.930Z,2.00
2023-06-07T05:58:16.949Z,2.80
2023-06-07T05:59:16.955Z,1.70
2023-06-07T06:00:16.905Z,2.30
2023-06-07T06:01:16.892Z,2.30
2023-06-07T06:02:16.966Z,2.20
2023-06-07T06:03:16.965Z,3.00
2023-06-07T06:04:16.870Z,2.70
2023-06-07T06:05:17.002Z,2.20
2023-06-07T06:06:16.834Z,1.90
2023-06-07T06:07:16.820Z,2.70
2023-06-07T06:08:16.856Z,3.00
2023-06-07T06:09:16.840Z,2.40
2023-06-07T06:10:16.820Z,2.90
2023-06-07T06:11:16.791Z,2.10
2023-06-07T06:12:16.929Z,2.90
2023-06-07T06:13:16.781Z,2.50
2023-06-07T06:14:16.764Z,2.60
2023-06-07T06:15:16.750Z,2.30
2023-06-07T06:16:16.749Z,2.70
2023-06-07T06:17:17.835Z,2.70
2023-06-07T06:18:16.716Z,2.00
2023-06-07T06:19:16.695Z,2.20
2023-06-07T06:20:16.700Z,1.90
2023-06-07T06:21:16.696Z,2.50
2023-06-07T06:22:16.693Z,2.50
2023-06-07T06:23:16.680Z,2.00
2023-06-07T06:24:16.712Z,2.90
2023-06-07T06:25:16.630Z,2.20
2023-06-07T06:26:16.651Z,2.20
2023-06-07T06:27:16.673Z,3.00
2023-06-07T06:28:16.623Z,2.30
2023-06-07T06:29:16.596Z,2.30
2023-06-07T06:30:16.597Z,2.60
2023-06-07T06:31:16.781Z,2.10
2023-06-07T06:32:16.562Z,2.10
2023-06-07T06:33:16.630Z,3.00
2023-06-07T06:34:16.552Z,2.40
2023-06-07T06:35:16.521Z,2.10
2023-06-07T06:36:16.600Z,2.70
2023-06-07T06:37:16.520Z,2.00
2023-06-07T06:38:16.500Z,3.00
2023-06-07T06:39:16.496Z,2.40
2023-06-07T06:40:16.512Z,2.50
2023-06-07T06:41:16.502Z,2.70
2023-06-07T06:42:16.479Z,2.10
2023-06-07T06:43:16.462Z,2.60
2023-06-07T06:44:16.460Z,2.50
2023-06-07T06:45:16.451Z,3.00
2023-06-07T06:46:18.394Z,2.20
2023-06-07T06:47:16.413Z,2.30
2023-06-07T06:48:16.503Z,2.40
2023-06-07T06:49:16.383Z,2.80
2023-06-07T06:50:31.153Z,2.70
2023-06-07T06:51:16.378Z,2.20
2023-06-07T06:52:16.373Z,2.50
2023-06-07T06:53:16.355Z,2.80
2023-06-07T06:54:16.357Z,2.20
2023-06-07T06:56:16.313Z,2.70
2023-06-07T06:57:16.313Z,2.00
2023-06-07T06:58:16.289Z,2.60
2023-06-07T06:59:16.332Z,3.00
2023-06-07T07:00:16.284Z,2.10
2023-06-07T07:01:16.261Z,2.40
2023-06-07T07:02:16.314Z,3.00
2023-06-07T07:03:16.302Z,2.50
2023-06-07T07:04:16.306Z,2.80
2023-06-07T07:05:16.219Z,1.90
2023-06-07T07:06:16.228Z,2.40
2023-06-07T07:07:16.203Z,2.50
2023-06-07T07:08:16.245Z,2.70
2023-06-07T07:09:16.242Z,2.40
2023-06-07T07:10:16.181Z,2.00
2023-06-07T07:11:16.183Z,2.30
2023-06-07T07:12:18.100Z,2.40
2023-06-07T07:13:16.199Z,2.20
2023-06-07T07:14:16.156Z,2.70
2023-06-07T07:15:16.120Z,2.50
2023-06-07T07:16:16.170Z,2.70
2023-06-07T07:17:16.091Z,2.80
2023-06-07T07:18:16.122Z,2.60
2023-06-07T07:19:16.087Z,3.10
2023-06-07T07:20:16.078Z,2.60
2023-06-07T07:21:16.062Z,2.40
2023-06-07T07:22:16.060Z,2.70
2023-06-07T07:23:16.063Z,2.70
2023-06-07T07:24:16.066Z,2.50
2023-06-07T07:25:16.027Z,2.90
2023-06-07T07:26:16.597Z,3.20
2023-06-07T07:27:16.028Z,3.10
2023-06-07T07:28:16.000Z,2.20
2023-06-07T07:29:15.972Z,2.60
2023-06-07T07:30:15.966Z,3.00
2023-06-07T07:31:15.992Z,2.50
2023-06-07T07:32:15.982Z,2.50
2023-06-07T07:33:15.928Z,2.60
2023-06-07T07:34:15.973Z,2.50
2023-06-07T07:35:16.031Z,2.30
2023-06-07T07:36:23.745Z,2.80
2023-06-07T07:37:15.911Z,2.10
2023-06-07T07:38:23.374Z,2.50
2023-06-07T07:39:22.357Z,3.30
2023-06-07T07:40:22.339Z,2.40
2023-06-07T07:41:23.888Z,2.60
2023-06-07T07:42:16.000Z,2.80
2023-06-07T07:43:15.997Z,2.90
2023-06-07T07:44:16.148Z,2.70
2023-06-07T07:45:15.826Z,2.80
2023-06-07T07:46:15.860Z,2.70
2023-06-07T07:47:15.779Z,2.80
2023-06-07T07:48:15.794Z,2.00
2023-06-07T07:49:15.771Z,2.80
2023-06-07T07:50:15.776Z,3.40
2023-06-07T07:51:15.766Z,2.60
2023-06-07T07:52:15.749Z,3.30
2023-06-07T07:53:15.739Z,2.50
2023-06-07T07:54:15.725Z,2.60
2023-06-07T07:55:15.725Z,2.10
2023-06-07T07:56:15.750Z,2.30
2023-06-07T07:57:15.820Z,3.30
2023-06-07T07:58:15.666Z,3.60
2023-06-07T07:59:15.699Z,3.70
2023-06-07T08:00:15.828Z,2.60
2023-06-07T08:01:15.799Z,3.20
2023-06-07T08:02:15.687Z,2.80
2023-06-07T08:03:15.797Z,3.20
2023-06-07T08:04:15.698Z,2.60
2023-06-07T08:05:15.709Z,3.00
2023-06-07T08:06:15.597Z,2.30
2023-06-07T08:07:15.603Z,3.00
2023-06-07T08:08:15.575Z,2.90
2023-06-07T08:09:15.649Z,3.20
2023-06-07T08:10:15.594Z,3.10
2023-06-07T08:11:15.554Z,3.00
2023-06-07T08:12:15.538Z,2.40
2023-06-07T08:13:15.546Z,2.70
2023-06-07T08:14:15.551Z,2.50
2023-06-07T08:15:15.533Z,2.60
2023-06-07T08:16:15.546Z,3.00
2023-06-07T08:17:15.511Z,3.30
2023-06-07T08:18:15.512Z,2.60
2023-06-07T08:19:15.538Z,2.60
2023-06-07T08:20:15.437Z,2.70
2023-06-07T08:21:15.438Z,3.10
2023-06-07T08:22:15.426Z,2.50
2023-06-07T08:23:15.422Z,3.00
2023-06-07T08:24:15.470Z,2.80
2023-06-07T08:25:15.419Z,2.60
2023-06-07T08:26:15.437Z,2.70
2023-06-07T08:27:15.374Z,2.60
2023-06-07T08:28:15.355Z,3.00
2023-06-07T08:29:15.408Z,2.80
2023-06-07T08:30:15.408Z,2.70
2023-06-07T08:31:15.357Z,3.00
2023-06-07T08:32:15.332Z,3.20
2023-06-07T08:33:15.369Z,2.20
2023-06-07T08:34:15.313Z,3.20
2023-06-07T08:35:15.294Z,3.80
2023-06-07T08:36:15.263Z,2.50
2023-06-07T08:37:15.318Z,2.30
2023-06-07T08:38:15.273Z,2.60
2023-06-07T08:39:15.246Z,3.30
2023-06-07T08:40:16.652Z,3.70
2023-06-07T08:41:15.249Z,3.70
2023-06-07T08:42:15.242Z,3.00
2023-06-07T08:43:15.226Z,2.80
2023-06-07T08:44:15.236Z,3.20
2023-06-07T08:45:15.228Z,2.50
2023-06-07T08:46:15.257Z,3.50
2023-06-07T08:47:15.208Z,2.70
2023-06-07T08:48:15.212Z,3.50
2023-06-07T08:49:15.155Z,2.90
2023-06-07T08:50:15.186Z,2.70
2023-06-07T08:51:15.118Z,3.00
2023-06-07T08:52:17.234Z,3.10
2023-06-07T08:53:15.116Z,3.20
2023-06-07T08:54:15.076Z,2.90
2023-06-07T08:55:15.095Z,3.20
2023-06-07T08:56:17.922Z,2.90
2023-06-07T08:57:15.188Z,3.40
2023-06-07T08:58:15.097Z,2.90
2023-06-07T08:59:15.044Z,3.30
2023-06-07T09:00:15.043Z,2.60
2023-06-07T09:01:15.168Z,3.30
2023-06-07T09:02:15.042Z,3.00
2023-06-07T09:03:15.304Z,3.00
2023-06-07T09:04:15.063Z,3.00
2023-06-07T09:05:14.992Z,2.70
2023-06-07T09:06:14.967Z,2.80
2023-06-07T09:07:14.969Z,3.00
2023-06-07T09:08:14.979Z,3.90
2023-06-07T09:09:14.964Z,3.00
2023-06-07T09:10:14.913Z,3.50
2023-06-07T09:11:14.942Z,3.10
2023-06-07T09:12:14.956Z,3.50
2023-06-07T09:13:14.882Z,3.40
2023-06-07T09:14:14.874Z,3.40
2023-06-07T09:15:14.861Z,3.80
2023-06-07T09:16:14.967Z,3.00
2023-06-07T09:17:15.029Z,3.20
2023-06-07T09:18:14.975Z,3.20
2023-06-07T09:19:14.833Z,3.70
2023-06-07T09:20:14.814Z,3.50
2023-06-07T09:21:17.216Z,3.00
2023-06-07T09:22:14.840Z,3.30
2023-06-07T09:23:14.842Z,3.50
2023-06-07T09:24:14.830Z,3.40
2023-06-07T09:25:14.789Z,2.70
2023-06-07T09:26:14.791Z,3.90
2023-06-07T09:27:14.761Z,3.00
2023-06-07T09:28:14.767Z,2.80
2023-06-07T09:29:14.746Z,3.00
2023-06-07T09:30:14.759Z,3.10
2023-06-07T09:31:14.788Z,2.70
2023-06-07T09:32:14.726Z,3.20
2023-06-07T09:33:14.746Z,2.70
2023-06-07T09:34:14.660Z,3.10
2023-06-07T09:35:14.710Z,3.00
2023-06-07T09:36:14.695Z,4.20
2023-06-07T09:37:14.692Z,3.00
2023-06-07T09:38:14.667Z,2.90
2023-06-07T09:39:14.658Z,3.60
2023-06-07T09:40:14.657Z,3.20
2023-06-07T09:41:14.633Z,3.70
2023-06-07T09:42:14.679Z,4.20
2023-06-07T09:43:14.579Z,3.20
2023-06-07T09:44:14.592Z,2.90
2023-06-07T09:45:14.583Z,3.00
2023-06-07T09:46:14.691Z,3.70
2023-06-07T09:47:14.595Z,3.10
2023-06-07T09:48:14.669Z,3.50
2023-06-07T09:49:14.643Z,3.40
2023-06-07T09:50:14.566Z,3.80
2023-06-07T09:51:14.517Z,3.60
2023-06-07T09:52:14.507Z,3.90
2023-06-07T09:53:14.527Z,3.40
2023-06-07T09:54:14.503Z,3.00
2023-06-07T09:55:14.520Z,3.40
2023-06-07T09:56:14.441Z,3.30
2023-06-07T09:57:14.470Z,3.00
2023-06-07T09:58:14.490Z,3.60
2023-06-07T09:59:14.564Z,3.70
2023-06-07T10:00:14.613Z,3.10
2023-06-07T10:01:14.515Z,2.90
2023-06-07T10:02:14.477Z,3.00
2023-06-07T10:03:14.500Z,3.50
2023-06-07T10:04:14.431Z,4.00
2023-06-07T10:05:14.634Z,2.90
2023-06-07T10:06:14.361Z,3.30
2023-06-07T10:07:14.363Z,4.30
2023-06-07T10:08:14.353Z,3.90
2023-06-07T10:09:14.342Z,3.00
2023-06-07T10:10:14.624Z,4.10
2023-06-07T10:11:14.302Z,3.40
2023-06-07T10:12:14.352Z,3.60
2023-06-07T10:13:14.314Z,3.80
2023-06-07T10:14:14.253Z,3.30
2023-06-07T10:15:14.262Z,3.80
2023-06-07T10:16:14.337Z,3.50
2023-06-07T10:17:14.363Z,3.80
2023-06-07T10:18:14.417Z,4.00
2023-06-07T10:19:14.253Z,3.90
2023-06-07T10:20:14.261Z,3.10
2023-06-07T10:21:14.218Z,4.00
2023-06-07T10:22:14.185Z,3.90
2023-06-07T10:23:14.204Z,4.10
2023-06-07T10:24:14.402Z,4.10
2023-06-07T10:25:14.185Z,3.60
2023-06-07T10:26:14.162Z,3.60
2023-06-07T10:27:14.155Z,3.60
2023-06-07T10:28:14.119Z,3.70
2023-06-07T10:29:14.099Z,4.50
2023-06-07T10:30:14.256Z,5.40
2023-06-07T10:31:14.221Z,4.50
2023-06-07T10:32:14.086Z,4.10
2023-06-07T10:33:14.142Z,4.40
2023-06-07T10:34:14.076Z,4.20
2023-06-07T10:35:16.032Z,4.70
2023-06-07T10:36:14.088Z,3.30
2023-06-07T10:37:14.117Z,5.20
2023-06-07T10:38:14.016Z,4.00
2023-06-07T10:39:14.053Z,3.80
2023-06-07T10:40:14.213Z,4.40
2023-06-07T10:41:15.142Z,3.50
2023-06-07T10:42:13.969Z,3.80
2023-06-07T10:43:14.029Z,4.20
2023-06-07T10:44:14.040Z,3.80
2023-06-07T10:45:13.976Z,3.10
2023-06-07T10:46:13.947Z,3.90
2023-06-07T10:47:14.049Z,3.20
2023-06-07T10:48:13.946Z,3.40
2023-06-07T10:49:13.970Z,3.60
2023-06-07T10:50:14.029Z,3.90
2023-06-07T10:51:13.923Z,3.80
2023-06-07T10:52:13.867Z,5.20
2023-06-07T10:53:14.996Z,4.50
2023-06-07T10:54:13.906Z,4.00
2023-06-07T10:55:13.926Z,3.90
2023-06-07T10:56:13.837Z,3.60
2023-06-07T10:57:13.881Z,4.30
2023-06-07T10:58:13.829Z,3.70
2023-06-07T10:59:13.899Z,3.70
2023-06-07T11:00:16.837Z,4.60
2023-06-07T11:01:13.815Z,3.60
2023-06-07T11:02:13.868Z,3.70
2023-06-07T11:03:13.928Z,4.20
2023-06-07T11:04:13.911Z,4.50
2023-06-07T11:05:13.904Z,3.70
2023-06-07T11:06:13.739Z,3.60
2023-06-07T11:07:13.709Z,4.00
2023-06-07T11:08:13.721Z,3.70
2023-06-07T11:09:13.790Z,4.30
2023-06-07T11:10:13.751Z,4.20
2023-06-07T11:11:13.675Z,5.30
2023-06-07T11:12:13.714Z,3.70
2023-06-07T11:13:13.684Z,3.70
2023-06-07T11:14:13.669Z,3.90
2023-06-07T11:15:13.654Z,4.30
2023-06-07T11:16:13.682Z,4.20
2023-06-07T11:17:13.611Z,3.90
2023-06-07T11:18:16.149Z,3.40
2023-06-07T11:19:13.614Z,4.00
2023-06-07T11:20:13.594Z,3.80
2023-06-07T11:21:13.602Z,4.00
2023-06-07T11:22:13.582Z,3.50
2023-06-07T11:23:13.592Z,4.10
2023-06-07T11:24:13.967Z,3.60
2023-06-07T11:25:13.586Z,3.30
2023-06-07T11:26:13.559Z,3.80
2023-06-07T11:27:13.536Z,4.00
2023-06-07T11:28:13.516Z,5.20
2023-06-07T11:29:13.501Z,4.10
2023-06-07T11:30:13.481Z,3.80
2023-06-07T11:31:13.805Z,4.50
2023-06-07T11:32:13.820Z,3.10
2023-06-07T11:33:13.567Z,3.60
2023-06-07T11:34:13.446Z,4.00
2023-06-07T11:35:16.678Z,3.50
2023-06-07T11:36:13.531Z,3.70
2023-06-07T11:37:13.445Z,4.10
2023-06-07T11:38:13.416Z,4.20
2023-06-07T11:39:13.397Z,4.30
2023-06-07T11:40:13.412Z,4.30
2023-06-07T11:41:13.457Z,4.70
2023-06-07T11:42:13.376Z,3.40
2023-06-07T11:43:13.450Z,4.50
2023-06-07T11:44:13.349Z,3.80
2023-06-07T11:45:13.331Z,3.60
2023-06-07T11:46:13.344Z,3.30
2023-06-07T11:47:13.429Z,3.30
2023-06-07T11:48:13.363Z,3.10
2023-06-07T11:49:13.417Z,3.40
2023-06-07T11:50:13.274Z,3.30
2023-06-07T11:51:13.369Z,3.90
2023-06-07T11:52:13.270Z,4.10
2023-06-07T11:53:13.872Z,4.00
2023-06-07T11:54:13.244Z,4.40
2023-06-07T11:55:13.205Z,3.40
2023-06-07T11:56:13.232Z,2.90
2023-06-07T11:57:13.195Z,3.30
2023-06-07T11:58:13.204Z,3.80
2023-06-07T11:59:13.205Z,3.80
2023-06-07T12:00:13.178Z,3.00
2023-06-07T12:01:13.205Z,3.60
2023-06-07T12:02:13.301Z,2.60
2023-06-07T12:03:13.340Z,3.10
2023-06-07T12:04:13.223Z,3.10
2023-06-07T12:05:13.100Z,3.20
2023-06-07T12:06:13.164Z,3.10
2023-06-07T12:07:13.163Z,3.50
2023-06-07T12:08:13.090Z,3.60
2023-06-07T12:09:13.081Z,3.40
2023-06-07T12:10:13.110Z,3.60
2023-06-07T12:11:13.094Z,3.00
2023-06-07T12:12:13.059Z,2.90
2023-06-07T12:13:13.063Z,3.30
2023-06-07T12:14:13.026Z,3.20
2023-06-07T12:15:13.028Z,3.00
2023-06-07T12:16:13.174Z,3.50
2023-06-07T12:17:13.001Z,3.10
2023-06-07T12:18:13.007Z,3.10
2023-06-07T12:19:12.959Z,3.20
2023-06-07T12:20:12.997Z,3.20
2023-06-07T12:21:13.094Z,3.30
2023-06-07T12:22:12.990Z,2.80
2023-06-07T12:23:12.931Z,3.20
2023-06-07T12:24:13.038Z,2.70
2023-06-07T12:25:12.947Z,3.00
2023-06-07T12:26:12.894Z,3.70
2023-06-07T12:27:12.908Z,3.50
2023-06-07T12:28:12.888Z,2.90
2023-06-07T12:29:12.889Z,3.20
2023-06-07T12:30:12.914Z,2.50
2023-06-07T12:31:12.943Z,2.80
2023-06-07T12:32:12.840Z,3.20
2023-06-07T12:33:12.841Z,3.20
2023-06-07T12:34:12.893Z,2.90
2023-06-07T12:35:12.807Z,2.80
2023-06-07T12:36:12.803Z,3.20
2023-06-07T12:37:12.815Z,2.60
2023-06-07T12:38:12.788Z,2.60
2023-06-07T12:39:19.250Z,2.80
2023-06-07T12:40:12.770Z,3.50
2023-06-07T12:41:12.751Z,2.40
2023-06-07T12:42:12.732Z,2.30
2023-06-07T12:43:12.726Z,3.00
2023-06-07T12:44:12.786Z,2.90
2023-06-07T12:45:12.717Z,2.70
2023-06-07T12:46:12.743Z,2.90
2023-06-07T12:47:12.767Z,2.50
2023-06-07T12:48:12.735Z,2.40
2023-06-07T12:49:12.689Z,2.80
2023-06-07T12:50:12.718Z,3.20
2023-06-07T12:51:12.689Z,2.70
2023-06-07T12:52:12.659Z,2.10
2023-06-07T12:53:12.674Z,2.50
2023-06-07T12:54:12.644Z,2.80
2023-06-07T12:55:12.655Z,2.90
2023-06-07T12:56:12.627Z,3.20
2023-06-07T12:57:12.603Z,2.50
2023-06-07T12:58:12.604Z,2.70
2023-06-07T12:59:12.572Z,2.70
2023-06-07T13:00:12.555Z,2.40
2023-06-07T13:01:12.639Z,2.70
2023-06-07T13:02:12.577Z,3.20
2023-06-07T13:03:12.602Z,2.50
2023-06-07T13:04:12.570Z,2.40
2023-06-07T13:05:12.531Z,2.80
2023-06-07T13:06:12.519Z,2.70
2023-06-07T13:07:12.499Z,2.40
2023-06-07T13:08:12.568Z,2.70
2023-06-07T13:09:12.458Z,2.30
2023-06-07T13:10:12.468Z,2.20
2023-06-07T13:11:12.540Z,2.60
2023-06-07T13:12:12.480Z,2.60
2023-06-07T13:13:12.431Z,2.50
2023-06-07T13:14:12.440Z,2.30
2023-06-07T13:15:12.400Z,2.50
2023-06-07T13:16:12.432Z,2.80
2023-06-07T13:17:12.513Z,2.50
2023-06-07T13:18:12.658Z,3.00
2023-06-07T13:19:12.363Z,2.50